createdAt,value
2024-01-24T00:00:04.828Z,0.300
2024-01-24T00:01:03.187Z,0.600
2024-01-24T00:02:03.457Z,0.400
2024-01-24T00:06:02.846Z,0.200
2024-01-24T00:07:03.009Z,0.400
2024-01-24T00:10:02.832Z,0.5
2024-01-24T00:11:02.650Z,0.400
2024-01-24T00:12:02.588Z,0.5
2024-01-24T00:13:02.343Z,0.400
2024-01-24T00:14:03.199Z,0.5
2024-01-24T00:15:03.316Z,0.200
2024-01-24T00:16:02.415Z,0.5
2024-01-24T00:17:03.577Z,0.400
2024-01-24T00:18:03.330Z,0.5
2024-01-24T00:19:03.276Z,0.300
2024-01-24T00:20:03.506Z,0.400
2024-01-24T00:23:02.464Z,0.600
2024-01-24T00:24:02.388Z,0.400
2024-01-24T00:25:03.628Z,0.800
2024-01-24T00:26:02.863Z,0.5
2024-01-24T00:27:03.306Z,0.600
2024-01-24T00:28:03.140Z,0.5
2024-01-24T00:29:02.828Z,0.699
2024-01-24T00:30:03.039Z,0.5
2024-01-24T00:32:03.329Z,0.300
2024-01-24T00:33:03.383Z,0.5
2024-01-24T00:36:03.074Z,0.400
2024-01-24T00:37:02.926Z,0.600
2024-01-24T00:39:02.620Z,0.5
2024-01-24T00:40:02.546Z,0.600
2024-01-24T00:41:02.540Z,0.5
2024-01-24T00:43:03.113Z,0.699
2024-01-24T00:44:02.960Z,0.600
2024-01-24T00:45:03.054Z,0.699
2024-01-24T00:46:02.734Z,0.600
2024-01-24T00:47:02.768Z,0.5
2024-01-24T00:48:02.573Z,0.600
2024-01-24T00:49:02.403Z,0.5
2024-01-24T00:50:03.415Z,0.699
2024-01-24T00:51:02.636Z,0.600
2024-01-24T00:52:02.675Z,0.800
2024-01-24T00:54:02.320Z,0.5
2024-01-24T00:55:03.384Z,0.400
2024-01-24T00:56:03.347Z,0.699
2024-01-24T00:57:03.230Z,0.400
2024-01-24T00:58:03.150Z,0.699
2024-01-24T00:59:03.087Z,0.600
2024-01-24T01:00:04.584Z,0.899
2024-01-24T01:01:03.462Z,0.800
2024-01-24T01:02:03.569Z,0.699
2024-01-24T01:03:02.576Z,0.800
2024-01-24T01:04:02.471Z,0.699
2024-01-24T01:05:03.464Z,0.800
2024-01-24T01:08:02.422Z,1
2024-01-24T01:09:03.419Z,0.800
2024-01-24T01:10:02.608Z,0.600
2024-01-24T01:11:02.384Z,0.899
2024-01-24T01:13:03.255Z,0.699
2024-01-24T01:14:03.064Z,0.800
2024-01-24T01:16:03.659Z,0.5
2024-01-24T01:17:03.424Z,0.699
2024-01-24T01:20:03.544Z,0.800
2024-01-24T01:21:02.616Z,0.899
2024-01-24T01:22:02.557Z,0.699
2024-01-24T01:23:02.488Z,1
2024-01-24T01:26:02.638Z,0.699
2024-01-24T01:27:02.515Z,1.100
2024-01-24T01:28:03.587Z,0.800
2024-01-24T01:29:02.635Z,1
2024-01-24T01:30:02.851Z,0.800
2024-01-24T01:31:02.761Z,1.100
2024-01-24T01:32:02.833Z,0.899
2024-01-24T01:33:02.972Z,0.800
2024-01-24T01:34:02.873Z,0.899
2024-01-24T01:35:02.696Z,1
2024-01-24T01:38:02.857Z,0.899
2024-01-24T01:40:03.058Z,0.800
2024-01-24T01:41:02.788Z,1
2024-01-24T01:43:02.805Z,0.699
2024-01-24T01:44:02.662Z,0.899
2024-01-24T01:45:03.033Z,0.800
2024-01-24T01:47:03.546Z,1
2024-01-24T01:48:02.920Z,0.899
2024-01-24T01:49:02.860Z,1
2024-01-24T01:50:02.812Z,0.699
2024-01-24T01:51:02.764Z,1.200
2024-01-24T01:53:02.499Z,1
2024-01-24T01:54:02.457Z,0.800
2024-01-24T01:55:02.430Z,1.299
2024-01-24T01:56:02.460Z,0.899
2024-01-24T01:59:02.834Z,1.200
2024-01-24T02:00:04.052Z,1.100
2024-01-24T02:03:02.518Z,1
2024-01-24T02:04:02.348Z,1.200
2024-01-24T02:05:03.411Z,0.899
2024-01-24T02:06:02.562Z,1.100
2024-01-24T02:07:02.442Z,1
2024-01-24T02:08:03.280Z,1.200
2024-01-24T02:09:03.272Z,1.299
2024-01-24T02:10:03.108Z,1
2024-01-24T02:11:03.285Z,1.100
2024-01-24T02:12:03.614Z,1
2024-01-24T02:13:03.542Z,1.100
2024-01-24T02:14:03.144Z,1.200
2024-01-24T02:15:03.246Z,1
2024-01-24T02:16:02.424Z,1.100
2024-01-24T02:18:02.855Z,1
2024-01-24T02:19:02.879Z,1.399
2024-01-24T02:20:02.765Z,1.299
2024-01-24T02:22:02.446Z,1
2024-01-24T02:23:03.313Z,1.100
2024-01-24T02:25:03.221Z,0.899
2024-01-24T02:26:03.142Z,1.100
2024-01-24T02:27:03.016Z,1
2024-01-24T02:28:03.025Z,1.100
2024-01-24T02:29:02.757Z,0.899
2024-01-24T02:30:02.908Z,1.100
2024-01-24T02:32:03.280Z,1.200
2024-01-24T02:33:02.494Z,0.899
2024-01-24T02:34:02.657Z,1
2024-01-24T02:35:02.537Z,0.899
2024-01-24T02:36:02.444Z,1
2024-01-24T02:38:03.343Z,1.100
2024-01-24T02:39:03.268Z,0.800
2024-01-24T02:40:03.434Z,0.899
2024-01-24T02:41:02.294Z,1.100
2024-01-24T02:42:03.143Z,1
2024-01-24T02:43:03.137Z,0.899
2024-01-24T02:46:02.745Z,1
2024-01-24T02:47:02.827Z,0.899
2024-01-24T02:48:02.519Z,0.800
2024-01-24T02:49:02.633Z,0.899
2024-01-24T02:50:03.334Z,0.800
2024-01-24T02:51:03.234Z,1
2024-01-24T02:53:03.204Z,0.899
2024-01-24T02:54:03.356Z,0.800
2024-01-24T02:55:03.427Z,0.899
2024-01-24T02:56:02.514Z,1
2024-01-24T02:57:02.541Z,0.600
2024-01-24T02:58:02.460Z,0.699
2024-01-24T02:59:03.393Z,0.899
2024-01-24T03:00:04.241Z,0.800
2024-01-24T03:03:02.629Z,0.699
2024-01-24T03:04:02.962Z,0.800
2024-01-24T03:05:03.288Z,0.600
2024-01-24T03:06:03.002Z,1
2024-01-24T03:07:02.966Z,0.5
2024-01-24T03:08:02.694Z,0.800
2024-01-24T03:09:02.579Z,0.699
2024-01-24T03:10:02.632Z,0.600
2024-01-24T03:11:02.479Z,0.699
2024-01-24T03:12:02.587Z,0.5
2024-01-24T03:13:02.411Z,0.699
2024-01-24T03:14:03.430Z,0.600
2024-01-24T03:16:02.733Z,0.400
2024-01-24T03:17:02.703Z,0.899
2024-01-24T03:18:02.860Z,0.400
2024-01-24T03:19:02.607Z,0.699
2024-01-24T03:20:02.574Z,0.5
2024-01-24T03:21:02.677Z,0.400
2024-01-24T03:23:04.774Z,0.5
2024-01-24T03:24:03.005Z,0.400
2024-01-24T03:25:03.411Z,0.300
2024-01-24T03:27:03.336Z,0.5
2024-01-24T03:28:03.222Z,0.200
2024-01-24T03:29:03.170Z,0.5
2024-01-24T03:30:03.546Z,0.400
2024-01-24T03:32:02.976Z,0.300
2024-01-24T03:35:02.956Z,0.200
2024-01-24T03:36:02.628Z,0.300
2024-01-24T03:38:02.462Z,0.200
2024-01-24T03:41:03.313Z,0.300
2024-01-24T03:42:03.172Z,0.400
2024-01-24T03:43:03.061Z,0.200
2024-01-24T03:46:03.495Z,0.100
2024-01-24T03:47:03.437Z,0.200
2024-01-24T03:48:02.525Z,0.300
2024-01-24T03:49:03.408Z,0.200
2024-01-24T03:50:03.617Z,0.100
2024-01-24T03:51:02.438Z,0.300
2024-01-24T03:52:02.543Z,0.400
2024-01-24T03:53:02.422Z,0.100
2024-01-24T03:54:03.398Z,0.300
2024-01-24T03:55:02.549Z,0.100
2024-01-24T03:56:02.426Z,0.200
2024-01-24T03:57:03.422Z,0.100
2024-01-24T03:59:02.707Z,0.300
2024-01-24T04:00:03.687Z,0.100
2024-01-24T04:01:03.194Z,0.300
2024-01-24T04:02:03.052Z,0.100
2024-01-24T04:03:02.954Z,0.200
2024-01-24T04:04:03.018Z,0
2024-01-24T04:05:02.847Z,0.100
2024-01-24T04:08:02.561Z,0
2024-01-24T04:09:02.550Z,0.200
2024-01-24T04:10:02.638Z,0.100
2024-01-24T04:14:03.452Z,0
2024-01-24T04:17:02.837Z,0.100
2024-01-24T04:19:03.324Z,0
2024-01-24T04:21:02.437Z,0.100
2024-01-24T04:24:03.356Z,0
2024-01-24T04:27:02.793Z,0.100
2024-01-24T04:29:02.440Z,0
2024-01-24T04:30:03.875Z,0.100
2024-01-24T04:33:03.094Z,0.200
2024-01-24T04:34:02.836Z,0.100
2024-01-24T04:35:03.243Z,0
2024-01-24T04:38:03.000Z,0.100
2024-01-24T04:39:03.106Z,0
2024-01-24T04:40:03.351Z,0.100
2024-01-24T04:41:03.256Z,0
2024-01-24T04:47:03.048Z,0.100
2024-01-24T04:48:03.408Z,0
2024-01-24T04:54:03.049Z,0.100
2024-01-24T04:55:03.019Z,0
2024-01-24T05:07:02.669Z,0.100
2024-01-24T05:12:03.396Z,0
2024-01-24T05:13:02.572Z,0.100
2024-01-24T05:19:03.163Z,0.200
2024-01-24T05:20:03.070Z,0.100
2024-01-24T05:22:02.792Z,0.200
2024-01-24T05:23:02.807Z,0.100
2024-01-24T05:24:02.662Z,0.200
2024-01-24T05:25:02.795Z,0.100
2024-01-24T05:26:02.794Z,0
2024-01-24T05:29:02.352Z,0.100
2024-01-24T05:31:03.191Z,0.200
2024-01-24T05:32:03.381Z,0
2024-01-24T05:33:03.106Z,0.100
2024-01-24T05:35:03.324Z,0.200
2024-01-24T05:36:03.336Z,0.100
2024-01-24T05:37:03.387Z,0.200
2024-01-24T05:38:03.252Z,0.100
2024-01-24T05:44:03.470Z,0.200
2024-01-24T05:45:03.584Z,0.100
2024-01-24T05:51:03.344Z,0.200
2024-01-24T05:52:02.610Z,0.300
2024-01-24T05:53:03.405Z,0.200
2024-01-24T05:54:03.425Z,0.300
2024-01-24T05:55:02.776Z,0.200
2024-01-24T05:56:02.677Z,0.300
2024-01-24T05:57:02.828Z,0.400
2024-01-24T05:58:02.873Z,0.5
2024-01-24T06:02:02.924Z,0.600
2024-01-24T06:03:03.494Z,0.800
2024-01-24T06:04:02.726Z,0.600
2024-01-24T06:05:03.135Z,0.800
2024-01-24T06:06:03.330Z,0.699
2024-01-24T06:07:02.445Z,0.800
2024-01-24T06:09:03.208Z,0.899
2024-01-24T06:10:03.337Z,0.699
2024-01-24T06:11:02.744Z,0.600
2024-01-24T06:12:02.753Z,0.800
2024-01-24T06:13:02.606Z,0.5
2024-01-24T06:14:02.677Z,0.899
2024-01-24T06:18:02.811Z,1.100
2024-01-24T06:19:02.708Z,0.800
2024-01-24T06:20:02.732Z,0.899
2024-01-24T06:21:02.835Z,1
2024-01-24T06:24:03.022Z,1.5
2024-01-24T06:25:03.126Z,1
2024-01-24T06:26:02.893Z,1.100
2024-01-24T06:28:02.701Z,1.399
2024-01-24T06:29:02.895Z,1.299
2024-01-24T06:30:18.337Z,1
2024-01-24T06:31:03.125Z,1.200
2024-01-24T06:32:03.307Z,1.5
2024-01-24T06:33:02.586Z,1.299
2024-01-24T06:34:02.833Z,1.399
2024-01-24T06:35:03.037Z,1.299
2024-01-24T06:36:02.899Z,1.5
2024-01-24T06:37:02.790Z,1.299
2024-01-24T06:38:02.716Z,1.399
2024-01-24T06:39:02.560Z,1.5
2024-01-24T06:40:02.751Z,1.799
2024-01-24T06:41:02.919Z,1.600
2024-01-24T06:42:02.809Z,1.299
2024-01-24T06:43:02.880Z,1.600
2024-01-24T06:44:02.800Z,1.5
2024-01-24T06:45:03.249Z,1.899
2024-01-24T06:46:02.639Z,1.600
2024-01-24T06:47:02.580Z,1.700
2024-01-24T06:48:03.497Z,2
2024-01-24T06:49:02.600Z,1.600
2024-01-24T06:50:02.604Z,1.899
2024-01-24T06:51:02.537Z,2.400
2024-01-24T06:52:02.336Z,1.899
2024-01-24T06:53:03.410Z,2.200
2024-01-24T06:54:03.455Z,2
2024-01-24T06:55:02.802Z,2.099
2024-01-24T06:56:02.947Z,2.799
2024-01-24T06:57:03.053Z,2.400
2024-01-24T06:58:04.988Z,2
2024-01-24T06:59:02.924Z,2.200
2024-01-24T07:00:04.532Z,2.400
2024-01-24T07:01:03.467Z,2.599
2024-01-24T07:02:03.583Z,2.5
2024-01-24T07:03:02.783Z,2.700
2024-01-24T07:04:03.075Z,2.799
2024-01-24T07:05:03.554Z,2.5
2024-01-24T07:06:02.595Z,2.799
2024-01-24T07:08:03.028Z,3
2024-01-24T07:09:03.043Z,2.700
2024-01-24T07:10:03.378Z,2.799
2024-01-24T07:11:03.037Z,2.5
2024-01-24T07:12:02.943Z,3.099
2024-01-24T07:13:02.964Z,2.799
2024-01-24T07:15:03.388Z,2.599
2024-01-24T07:17:02.804Z,3.200
2024-01-24T07:18:02.835Z,3.099
2024-01-24T07:20:03.124Z,2.799
2024-01-24T07:22:04.871Z,3.299
2024-01-24T07:23:02.672Z,3.200
2024-01-24T07:24:02.727Z,3.099
2024-01-24T07:25:02.834Z,3.400
2024-01-24T07:26:03.032Z,3.299
2024-01-24T07:27:03.120Z,3.400
2024-01-24T07:28:03.376Z,3
2024-01-24T07:29:02.733Z,3.400
2024-01-24T07:30:03.049Z,3.700
2024-01-24T07:31:03.424Z,3.5
2024-01-24T07:32:02.862Z,3.200
2024-01-24T07:33:03.359Z,3.5
2024-01-24T07:35:03.802Z,3.099
2024-01-24T07:37:02.929Z,3
2024-01-24T07:38:02.781Z,2.900
2024-01-24T07:39:02.845Z,3.400
2024-01-24T07:40:03.212Z,3.200
2024-01-24T07:42:02.885Z,2.900
2024-01-24T07:44:02.882Z,2.700
2024-01-24T07:45:03.445Z,3.200
2024-01-24T07:46:03.209Z,2.900
2024-01-24T07:47:03.376Z,2.799
2024-01-24T07:48:02.773Z,3.200
2024-01-24T07:49:02.962Z,2.700
2024-01-24T07:50:03.433Z,2.799
2024-01-24T07:52:02.779Z,2.900
2024-01-24T07:53:02.806Z,3.099
2024-01-24T07:54:02.811Z,3.599
2024-01-24T07:55:02.787Z,3.200
2024-01-24T07:56:11.086Z,3.099
2024-01-24T07:57:02.465Z,3.200
2024-01-24T07:58:03.835Z,3.400
2024-01-24T08:00:03.636Z,3.099
2024-01-24T08:01:03.315Z,3
2024-01-24T08:02:03.757Z,2.900
2024-01-24T08:03:03.193Z,3
2024-01-24T08:04:03.250Z,3.200
2024-01-24T08:05:03.388Z,3.299
2024-01-24T08:06:03.054Z,3.599
2024-01-24T08:07:03.034Z,3.700
2024-01-24T08:08:02.870Z,2.799
2024-01-24T08:09:03.016Z,3.599
2024-01-24T08:10:03.382Z,3.5
2024-01-24T08:11:02.943Z,3.200
2024-01-24T08:12:03.106Z,3.299
2024-01-24T08:13:02.926Z,3.799
2024-01-24T08:14:02.875Z,3.5
2024-01-24T08:15:03.346Z,3.200
2024-01-24T08:16:02.674Z,3.299
2024-01-24T08:17:02.693Z,3.5
2024-01-24T08:18:03.643Z,3.200
2024-01-24T08:19:02.949Z,3.400
2024-01-24T08:20:03.049Z,3.5
2024-01-24T08:21:05.661Z,3.599
2024-01-24T08:22:02.801Z,3.400
2024-01-24T08:23:02.930Z,3.799
2024-01-24T08:24:03.029Z,4.199
2024-01-24T08:25:03.073Z,3.400
2024-01-24T08:26:03.023Z,3.900
2024-01-24T08:27:03.238Z,3.599
2024-01-24T08:28:03.197Z,3.799
2024-01-24T08:29:02.905Z,3.599
2024-01-24T08:30:03.489Z,3.5
2024-01-24T08:31:02.882Z,3.799
2024-01-24T08:32:03.263Z,3.900
2024-01-24T08:33:03.075Z,4
2024-01-24T08:34:03.462Z,4.400
2024-01-24T08:35:03.527Z,3.900
2024-01-24T08:36:03.194Z,4.099
2024-01-24T08:37:03.683Z,4.199
2024-01-24T08:38:02.965Z,3.900
2024-01-24T08:39:02.877Z,4
2024-01-24T08:40:03.161Z,4.099
2024-01-24T08:41:02.607Z,4.400
2024-01-24T08:42:02.576Z,4.199
2024-01-24T08:43:02.559Z,3.900
2024-01-24T08:44:03.327Z,4.099
2024-01-24T08:45:03.666Z,3.799
2024-01-24T08:46:02.732Z,4.400
2024-01-24T08:47:02.847Z,4.300
2024-01-24T08:48:03.048Z,4.199
2024-01-24T08:49:03.011Z,4.099
2024-01-24T08:50:03.149Z,4.199
2024-01-24T08:51:02.970Z,3.900
2024-01-24T08:52:03.085Z,4.5
2024-01-24T08:53:02.907Z,4.599
2024-01-24T08:54:02.962Z,4.199
2024-01-24T08:55:03.221Z,4.5
2024-01-24T08:56:03.155Z,3.900
2024-01-24T08:57:03.107Z,4.400
2024-01-24T08:58:03.237Z,3.900
2024-01-24T08:59:03.169Z,4.5
2024-01-24T09:00:04.461Z,4.300
2024-01-24T09:01:02.786Z,3.900
2024-01-24T09:02:03.070Z,4.199
2024-01-24T09:03:02.814Z,4.5
2024-01-24T09:04:03.232Z,4.599
2024-01-24T09:05:03.318Z,4.699
2024-01-24T09:06:03.413Z,4.199
2024-01-24T09:07:03.507Z,4.400
2024-01-24T09:09:03.108Z,3.700
2024-01-24T09:10:03.145Z,4.699
2024-01-24T09:11:02.994Z,4.099
2024-01-24T09:12:02.884Z,4.800
2024-01-24T09:13:03.165Z,4.099
2024-01-24T09:14:03.139Z,4.300
2024-01-24T09:16:02.709Z,4.199
2024-01-24T09:17:02.761Z,4.699
2024-01-24T09:18:02.852Z,5.099
2024-01-24T09:19:02.967Z,4.599
2024-01-24T09:20:03.039Z,4.800
2024-01-24T09:21:02.787Z,4.5
2024-01-24T09:22:03.145Z,4.099
2024-01-24T09:23:02.727Z,4.300
2024-01-24T09:25:06.427Z,4.599
2024-01-24T09:26:03.029Z,4.900
2024-01-24T09:28:02.800Z,4.699
2024-01-24T09:29:03.250Z,4.099
2024-01-24T09:30:03.661Z,4.900
2024-01-24T09:31:03.086Z,4.099
2024-01-24T09:32:03.364Z,5
2024-01-24T09:33:02.901Z,4.800
2024-01-24T09:34:03.453Z,4.300
2024-01-24T09:35:03.676Z,4
2024-01-24T09:36:03.412Z,4.300
2024-01-24T09:37:03.213Z,4.400
2024-01-24T09:38:03.259Z,4.800
2024-01-24T09:39:03.137Z,4.699
2024-01-24T09:40:03.354Z,4.300
2024-01-24T09:41:03.157Z,4
2024-01-24T09:42:03.050Z,4.099
2024-01-24T09:43:03.225Z,4.300
2024-01-24T09:44:03.444Z,4.900
2024-01-24T09:45:04.563Z,4.699
2024-01-24T09:46:02.879Z,5.099
2024-01-24T09:47:03.090Z,4.5
2024-01-24T09:49:03.321Z,5
2024-01-24T09:50:03.323Z,4.5
2024-01-24T09:51:03.515Z,4.300
2024-01-24T09:52:02.909Z,5.199
2024-01-24T09:53:02.857Z,4.599
2024-01-24T09:54:02.967Z,4.699
2024-01-24T09:55:03.452Z,5.199
2024-01-24T09:56:02.569Z,4.800
2024-01-24T09:57:02.886Z,5
2024-01-24T09:58:03.100Z,5.099
2024-01-24T09:59:03.098Z,4.599
2024-01-24T10:00:04.321Z,5
2024-01-24T10:01:02.754Z,4.800
2024-01-24T10:02:02.666Z,4.900
2024-01-24T10:03:02.701Z,4.5
2024-01-24T10:04:02.763Z,4.800
2024-01-24T10:05:02.761Z,4.400
2024-01-24T10:06:02.934Z,4.699
2024-01-24T10:07:03.037Z,4.900
2024-01-24T10:09:05.447Z,5.199
2024-01-24T10:10:02.973Z,4.199
2024-01-24T10:11:02.811Z,4.800
2024-01-24T10:12:02.860Z,5.199
2024-01-24T10:13:03.184Z,4.900
2024-01-24T10:14:02.983Z,5.099
2024-01-24T10:15:03.457Z,4.800
2024-01-24T10:17:02.920Z,4.5
2024-01-24T10:18:03.432Z,4.699
2024-01-24T10:20:03.065Z,5.400
2024-01-24T10:21:02.996Z,4.800
2024-01-24T10:22:04.197Z,4.900
2024-01-24T10:23:03.084Z,4.699
2024-01-24T10:24:03.103Z,4.900
2024-01-24T10:25:03.558Z,4.800
2024-01-24T10:26:02.861Z,5.099
2024-01-24T10:27:02.893Z,4.599
2024-01-24T10:28:02.855Z,5.099
2024-01-24T10:29:02.733Z,5.300
2024-01-24T10:30:03.093Z,4.800
2024-01-24T10:31:03.411Z,4.5
2024-01-24T10:32:02.750Z,5.699
2024-01-24T10:33:03.312Z,5
2024-01-24T10:34:03.536Z,5.199
2024-01-24T10:35:02.940Z,5.900
2024-01-24T10:36:07.597Z,5.400
2024-01-24T10:37:02.798Z,5.199
2024-01-24T10:38:02.961Z,5.099
2024-01-24T10:39:03.079Z,5.199
2024-01-24T10:40:03.430Z,4.699
2024-01-24T10:41:03.583Z,5.099
2024-01-24T10:43:03.204Z,5.400
2024-01-24T10:44:03.060Z,5.199
2024-01-24T10:46:02.975Z,5.400
2024-01-24T10:47:03.189Z,5.5
2024-01-24T10:48:02.525Z,5.199
2024-01-24T10:49:03.630Z,5.400
2024-01-24T10:50:03.497Z,4.900
2024-01-24T10:51:03.628Z,4.400
2024-01-24T10:52:03.557Z,5.300
2024-01-24T10:53:02.383Z,4.5
2024-01-24T10:55:02.797Z,4.699
2024-01-24T10:56:02.882Z,4.400
2024-01-24T10:57:03.272Z,4.699
2024-01-24T10:58:04.763Z,4.5
2024-01-24T10:59:02.772Z,4.300
2024-01-24T11:00:04.586Z,4.5
2024-01-24T11:01:02.913Z,4.900
2024-01-24T11:02:03.243Z,5.099
2024-01-24T11:03:02.589Z,5
2024-01-24T11:04:03.279Z,4.400
2024-01-24T11:05:03.653Z,4.900
2024-01-24T11:06:02.938Z,5.400
2024-01-24T11:07:03.103Z,5.300
2024-01-24T11:08:02.967Z,5
2024-01-24T11:09:03.062Z,5.099
2024-01-24T11:10:04.550Z,5.300
2024-01-24T11:11:02.687Z,4.599
2024-01-24T11:12:02.644Z,5.300
2024-01-24T11:13:02.719Z,4.900
2024-01-24T11:14:02.867Z,5.5
2024-01-24T11:15:03.141Z,5.099
2024-01-24T11:16:04.810Z,4.5
2024-01-24T11:17:03.295Z,5.099
2024-01-24T11:18:02.933Z,4.900
2024-01-24T11:19:02.887Z,5.199
2024-01-24T11:20:02.816Z,5
2024-01-24T11:21:02.949Z,5.199
2024-01-24T11:22:07.518Z,4.800
2024-01-24T11:23:03.384Z,5
2024-01-24T11:24:02.532Z,4.599
2024-01-24T11:25:03.104Z,4.900
2024-01-24T11:26:03.308Z,5.099
2024-01-24T11:27:03.534Z,5.599
2024-01-24T11:28:03.277Z,5.099
2024-01-24T11:30:03.357Z,5
2024-01-24T11:31:03.301Z,4.800
2024-01-24T11:32:05.342Z,5.199
2024-01-24T11:34:02.958Z,5.599
2024-01-24T11:35:03.269Z,5.300
2024-01-24T11:36:03.507Z,5.5
2024-01-24T11:37:02.494Z,5.400
2024-01-24T11:39:03.262Z,5.300
2024-01-24T11:40:03.572Z,5.900
2024-01-24T11:41:02.630Z,5.300
2024-01-24T11:42:02.772Z,4.400
2024-01-24T11:43:02.873Z,4.900
2024-01-24T11:44:02.604Z,5.099
2024-01-24T11:45:03.229Z,5
2024-01-24T11:46:03.797Z,4.599
2024-01-24T11:47:02.805Z,5
2024-01-24T11:48:02.618Z,5.5
2024-01-24T11:50:02.769Z,5.300
2024-01-24T11:51:02.539Z,5.400
2024-01-24T11:52:02.444Z,5.199
2024-01-24T11:53:03.415Z,5
2024-01-24T11:55:03.432Z,5.199
2024-01-24T11:58:03.032Z,4.599
2024-01-24T11:59:02.853Z,5.800
2024-01-24T12:00:04.203Z,5.099
2024-01-24T12:01:02.610Z,5.300
2024-01-24T12:02:02.775Z,4.900
2024-01-24T12:03:02.664Z,5.5
2024-01-24T12:04:02.887Z,5.199
2024-01-24T12:05:02.846Z,4.5
2024-01-24T12:06:02.917Z,5.300
2024-01-24T12:07:02.946Z,5.800
2024-01-24T12:08:02.634Z,5.599
2024-01-24T12:09:02.555Z,5.5
2024-01-24T12:10:02.993Z,5.599
2024-01-24T12:11:02.993Z,5.199
2024-01-24T12:12:03.082Z,5.099
2024-01-24T12:13:03.161Z,4.900
2024-01-24T12:14:03.347Z,5.099
2024-01-24T12:15:02.988Z,5.400
2024-01-24T12:16:03.422Z,5.800
2024-01-24T12:17:02.680Z,5.900
2024-01-24T12:18:02.934Z,5.300
2024-01-24T12:19:02.767Z,5.199
2024-01-24T12:20:03.502Z,5
2024-01-24T12:21:03.619Z,5.300
2024-01-24T12:22:02.581Z,5.099
2024-01-24T12:23:02.580Z,5.300
2024-01-24T12:25:02.673Z,5.099
2024-01-24T12:26:02.943Z,5.300
2024-01-24T12:28:03.577Z,5.5
2024-01-24T12:29:02.824Z,5.099
2024-01-24T12:30:03.373Z,5.300
2024-01-24T12:31:03.166Z,5.099
2024-01-24T12:32:03.141Z,5
2024-01-24T12:33:03.192Z,5.199
2024-01-24T12:34:02.981Z,5.699
2024-01-24T12:35:03.235Z,5.199
2024-01-24T12:36:02.842Z,5
2024-01-24T12:37:02.938Z,5.199
2024-01-24T12:38:02.742Z,4.599
2024-01-24T12:39:02.742Z,5.199
2024-01-24T12:40:03.756Z,5.099
2024-01-24T12:41:02.672Z,5.599
2024-01-24T12:42:02.408Z,5.099
2024-01-24T12:43:03.680Z,5.400
2024-01-24T12:44:02.561Z,5
2024-01-24T12:45:02.980Z,4.900
2024-01-24T12:46:02.496Z,5.099
2024-01-24T12:47:03.778Z,5.300
2024-01-24T12:48:03.222Z,4.599
2024-01-24T12:49:03.134Z,5
2024-01-24T12:50:03.366Z,5.199
2024-01-24T12:51:02.454Z,5.300
2024-01-24T12:53:03.509Z,4.800
2024-01-24T12:54:03.013Z,5
2024-01-24T12:55:03.456Z,5.300
2024-01-24T12:56:03.338Z,5.199
2024-01-24T12:57:03.209Z,5.400
2024-01-24T12:58:03.165Z,5.099
2024-01-24T12:59:03.157Z,5
2024-01-24T13:00:04.244Z,4.5
2024-01-24T13:01:03.314Z,5
2024-01-24T13:02:03.339Z,5.199
2024-01-24T13:03:02.624Z,4.400
2024-01-24T13:05:02.619Z,4.199
2024-01-24T13:06:02.718Z,4.699
2024-01-24T13:09:03.221Z,4.400
2024-01-24T13:10:06.688Z,4.800
2024-01-24T13:11:03.275Z,5.300
2024-01-24T13:12:03.104Z,4.199
2024-01-24T13:13:03.152Z,4.400
2024-01-24T13:14:02.946Z,5
2024-01-24T13:15:03.318Z,5.099
2024-01-24T13:16:03.214Z,4.699
2024-01-24T13:17:03.472Z,4.400
2024-01-24T13:18:03.025Z,4.699
2024-01-24T13:19:02.922Z,4.5
2024-01-24T13:20:03.037Z,4.800
2024-01-24T13:22:02.990Z,4.900
2024-01-24T13:23:02.845Z,4.5
2024-01-24T13:24:02.713Z,4.800
2024-01-24T13:26:02.868Z,5.099
2024-01-24T13:27:02.865Z,5
2024-01-24T13:28:02.937Z,4.5
2024-01-24T13:29:02.984Z,5
2024-01-24T13:31:03.256Z,5.199
2024-01-24T13:32:03.202Z,4.900
2024-01-24T13:34:02.804Z,4.800
2024-01-24T13:35:02.824Z,5.199
2024-01-24T13:36:02.703Z,5
2024-01-24T13:37:02.748Z,4.699
2024-01-24T13:38:02.495Z,5.199
2024-01-24T13:39:02.455Z,4.400
2024-01-24T13:40:03.835Z,5.099
2024-01-24T13:41:02.995Z,5
2024-01-24T13:42:03.115Z,4.5
2024-01-24T13:43:03.302Z,4.599
2024-01-24T13:44:03.044Z,5.199
2024-01-24T13:45:03.733Z,5
2024-01-24T13:46:02.646Z,4.800
2024-01-24T13:48:02.753Z,5.199
2024-01-24T13:49:03.005Z,4.599
2024-01-24T13:50:03.233Z,5
2024-01-24T13:51:03.143Z,5.099
2024-01-24T13:54:02.847Z,4.699
2024-01-24T13:58:03.076Z,4
2024-01-24T13:59:02.892Z,4.699
2024-01-24T14:00:03.909Z,4.400
2024-01-24T14:01:03.056Z,4.900
2024-01-24T14:02:03.345Z,5.199
2024-01-24T14:03:02.954Z,4.400
2024-01-24T14:04:03.006Z,4.300
2024-01-24T14:05:03.050Z,3.900
2024-01-24T14:06:03.100Z,5.300
2024-01-24T14:07:03.186Z,4.599
2024-01-24T14:08:02.944Z,4.400
2024-01-24T14:09:03.059Z,4.900
2024-01-24T14:10:03.193Z,4.800
2024-01-24T14:11:03.239Z,4.300
2024-01-24T14:12:02.917Z,4.5
2024-01-24T14:13:03.367Z,4.699
2024-01-24T14:14:02.636Z,5
2024-01-24T14:15:08.055Z,5.300
2024-01-24T14:16:02.748Z,4.800
2024-01-24T14:17:03.012Z,4.900
2024-01-24T14:18:02.624Z,4.400
2024-01-24T14:19:02.881Z,4.5
2024-01-24T14:20:03.082Z,5.599
2024-01-24T14:21:02.941Z,4.699
2024-01-24T14:22:03.183Z,4.800
2024-01-24T14:23:03.131Z,5.199
2024-01-24T14:24:02.998Z,4.900
2024-01-24T14:25:03.296Z,5.5
2024-01-24T14:26:03.444Z,5.599
2024-01-24T14:27:03.326Z,5
2024-01-24T14:28:03.478Z,5.300
2024-01-24T14:29:03.370Z,5.800
2024-01-24T14:30:03.748Z,4.599
2024-01-24T14:31:02.895Z,5
2024-01-24T14:32:03.291Z,5.300
2024-01-24T14:33:03.453Z,5.199
2024-01-24T14:34:03.386Z,5
2024-01-24T14:35:03.438Z,5.400
2024-01-24T14:37:10.051Z,4.699
2024-01-24T14:38:03.553Z,5.400
2024-01-24T14:40:03.691Z,5.300
2024-01-24T14:41:02.557Z,5.199
2024-01-24T14:43:03.063Z,4.300
2024-01-24T14:44:03.236Z,5.599
2024-01-24T14:45:03.685Z,5.5
2024-01-24T14:46:02.786Z,4.599
2024-01-24T14:48:02.944Z,4.800
2024-01-24T14:49:02.932Z,4.5
2024-01-24T14:50:03.360Z,4.699
2024-01-24T14:51:03.166Z,4.900
2024-01-24T14:52:03.573Z,4.699
2024-01-24T14:53:03.574Z,4.800
2024-01-24T14:54:02.561Z,5
2024-01-24T14:55:02.956Z,4.900
2024-01-24T14:56:03.104Z,5.099
2024-01-24T14:57:03.284Z,4.900
2024-01-24T14:58:03.359Z,4.699
2024-01-24T14:59:03.384Z,5
2024-01-24T15:00:04.912Z,4.900
2024-01-24T15:02:03.494Z,5
2024-01-24T15:03:03.374Z,5.099
2024-01-24T15:05:03.159Z,5.400
2024-01-24T15:06:03.234Z,4.900
2024-01-24T15:07:03.289Z,4.800
2024-01-24T15:08:03.495Z,5.5
2024-01-24T15:09:02.829Z,5
2024-01-24T15:10:03.330Z,4.5
2024-01-24T15:11:02.811Z,4.800
2024-01-24T15:12:03.025Z,4
2024-01-24T15:13:03.302Z,5.199
2024-01-24T15:14:03.075Z,4.800
2024-01-24T15:15:03.339Z,4.5
2024-01-24T15:16:02.836Z,4.800
2024-01-24T15:17:03.304Z,4.400
2024-01-24T15:18:02.831Z,4.800
2024-01-24T15:19:03.061Z,4.900
2024-01-24T15:20:03.456Z,5.300
2024-01-24T15:21:08.696Z,4.5
2024-01-24T15:22:03.191Z,5
2024-01-24T15:23:03.120Z,4.900
2024-01-24T15:25:03.843Z,5.300
2024-01-24T15:26:03.267Z,4.599
2024-01-24T15:27:03.219Z,4.800
2024-01-24T15:28:03.099Z,5.599
2024-01-24T15:29:03.094Z,4.900
2024-01-24T15:30:03.803Z,4.699
2024-01-24T15:31:02.926Z,5
2024-01-24T15:32:03.286Z,4.699
2024-01-24T15:33:03.091Z,4.5
2024-01-24T15:34:03.597Z,5.199
2024-01-24T15:36:03.198Z,4.900
2024-01-24T15:38:03.470Z,5
2024-01-24T15:39:03.565Z,5.099
2024-01-24T15:40:05.199Z,4.699
2024-01-24T15:41:02.893Z,5.5
2024-01-24T15:42:03.153Z,4.800
2024-01-24T15:43:03.449Z,4.900
2024-01-24T15:45:03.354Z,4.699
2024-01-24T15:46:02.952Z,5.199
2024-01-24T15:47:03.486Z,5.400
2024-01-24T15:48:03.204Z,5.199
2024-01-24T15:49:03.505Z,5.400
2024-01-24T15:50:03.617Z,5
2024-01-24T15:51:03.018Z,4.699
2024-01-24T15:52:03.365Z,4.599
2024-01-24T15:53:03.268Z,5
2024-01-24T15:54:03.415Z,5.099
2024-01-24T15:55:03.689Z,4.400
2024-01-24T15:56:02.925Z,5.199
2024-01-24T15:57:03.046Z,5
2024-01-24T15:58:03.440Z,4.699
2024-01-24T15:59:03.067Z,5.900
2024-01-24T16:00:04.240Z,5.5
2024-01-24T16:01:03.588Z,4.599
2024-01-24T16:02:03.200Z,5.5
2024-01-24T16:03:03.637Z,5
2024-01-24T16:04:03.436Z,5.199
2024-01-24T16:05:04.105Z,5.599
2024-01-24T16:06:03.300Z,5.400
2024-01-24T16:07:03.469Z,5.199
2024-01-24T16:08:02.910Z,5.099
2024-01-24T16:09:03.454Z,6.199
2024-01-24T16:10:02.918Z,5.199
2024-01-24T16:11:03.688Z,5.5